الصفحة الرئيسية
METAR-TAF:

METAR-TAF

مطار :

مطار برشتينا الدولي

برشتينا, كوسوفو

دائرة عرض: 42-34-27N, خط طول: 21-02-09E, ارتفاع: 545 متر

مراقبة الطقس الحالي

تاريخ ووقت الإصدار 37 دقيقة قبل الساعة 20:30UTC
ريح 4 عقدة من الغرب
درجة الحرارة 10°درجة مئوية
الرطوبة 82%
ضغط 1019 hPa
الرؤية 10 كم أو أكثر
غيوم متفرقة على ارتفاع 4000 قدم

METAR: BKPR 292030Z 28004KT 9999 SCT040 10/07 Q1019 NOSIG

زمن: 23:07 (21:07 UTC)

توقعات

تاريخ ووقت الإصدار 3ساعات و 37 دقيقة قبل الساعة 17:30UTC
التوقعات صالحة من29 الساعة 18 UTC إلى 30 الساعة 18 UTC
ريح 7 عقدة من الشمال الغربي
الرؤية 10 كم أو أكثر
غيوم متفرقة على ارتفاع 3000 قدم
غيوم مفككة على ارتفاع 7000 قدم
مؤقت
من 29 الساعة 18 UTC إلى 29 الساعة 20 UTC
الرؤية: 5000 متر
زخات من الأمطار الخفيفة
مؤقت
من 30 الساعة 09 UTC إلى 30 الساعة 18 UTC
الرؤية: 5000 متر
غيوم متفرقة على ارتفاع 3000 قدم, مزنة ركامية.
عاصفة رعدية, مطر

TAF: BKPR 291730Z 2918/3018 32007KT 9999 SCT030 BKN070 TEMPO 2918/2920 5000 -SHRA TEMPO 3009/3018 5000 TSRA SCT030CB

أرصاد الطقس والتوقعات من أكثر من 4000 مطار (تقارير الطقس للمطار METAR والتنبؤ بالطقس بالمطارTAF).

المحطات المتاحة هي النقط الصفراء والحمراء على الخريطة.

حرك المؤشر فوق النقطة لمعرفة اسم المحطة.

ثم انقر لمعرفة أرصاد وتوقعات الطقس.

لتغيير الخارطة: اضغط على الأزرار الخضراء مع رمز الصليب الأسود للتكبير. على الزر الأخضر مع شرطة للتصغير، أو على الأسهم الخضراء للخرائط المجاورة.


METAR-TAF: